Time;durP1;ratioP1;P1;durP2;ratioP2;P2;SDS_P1;SDS_P2;PMS_P1;PMS_P2;Temp;Humidity;BMP_temperature;BMP_pressure;BME280_temperature;BME280_humidity;BME280_pressure;Samples;Min_cycle;Max_cycle;Signal;HPM_P1;HPM_P2
2020/12/22 00:00:06;;;;;;;0.50;0.50;;;8.80;99.90;;;;;;2072972;28;20197;-60
2020/12/22 00:01:07;;;;;;;0.43;0.43;;;8.80;99.90;;;;;;2072710;28;20566;-60
2020/12/22 00:02:08;;;;;;;0.40;0.40;;;8.80;99.90;;;;;;2073095;28;20268;-59
2020/12/22 00:03:09;;;;;;;0.40;0.40;;;8.80;99.90;;;;;;2072917;28;20712;-60
2020/12/22 00:04:10;;;;;;;0.80;0.60;;;8.80;99.90;;;;;;2072892;28;20241;-60
2020/12/22 00:05:11;;;;;;;0.60;0.60;;;8.80;99.90;;;;;;2073052;28;20197;-60
2020/12/22 00:06:12;;;;;;;0.50;0.50;;;8.80;99.90;;;;;;2072987;28;20723;-62
2020/12/22 00:07:13;;;;;;;0.60;0.60;;;8.80;99.90;;;;;;2072854;28;20253;-61
2020/12/22 00:08:14;;;;;;;0.60;0.60;;;8.80;99.90;;;;;;2072918;28;20210;-62
2020/12/22 00:09:15;;;;;;;0.70;0.50;;;8.90;99.90;;;;;;2072752;28;20189;-61
2020/12/22 00:10:16;;;;;;;0.60;0.60;;;8.80;99.90;;;;;;2072880;28;20179;-62
2020/12/22 00:11:17;;;;;;;0.60;0.60;;;8.80;99.90;;;;;;2072700;28;20207;-62
2020/12/22 00:12:18;;;;;;;2.00;0.70;;;8.90;99.90;;;;;;2072374;28;20186;-62
2020/12/22 00:13:18;;;;;;;0.60;0.60;;;8.80;99.90;;;;;;2072197;28;20717;-63
2020/12/22 00:14:19;;;;;;;0.70;0.70;;;8.80;99.90;;;;;;2072905;28;20268;-61
2020/12/22 00:15:20;;;;;;;0.60;0.60;;;8.80;99.90;;;;;;2072785;28;20209;-62
2020/12/22 00:16:21;;;;;;;0.50;0.50;;;8.80;99.90;;;;;;2072164;28;20433;-61
2020/12/22 00:17:21;;;;;;;0.50;0.50;;;8.80;99.90;;;;;;2072281;28;20238;-62
2020/12/22 00:18:22;;;;;;;0.70;0.70;;;8.80;99.90;;;;;;2072953;28;20180;-60
2020/12/22 00:19:23;;;;;;;0.53;0.53;;;8.90;99.90;;;;;;2072803;28;20310;-62
2020/12/22 00:20:24;;;;;;;1.97;0.70;;;8.90;99.90;;;;;;2079401;28;20696;-62
2020/12/22 00:21:24;;;;;;;0.70;0.70;;;8.80;99.90;;;;;;2088900;28;20177;-63
2020/12/22 00:22:25;;;;;;;1.07;0.80;;;8.80;99.90;;;;;;2089160;28;20173;-60
2020/12/22 00:23:26;;;;;;;0.83;0.80;;;8.90;99.90;;;;;;2089391;28;20177;-61
2020/12/22 00:24:26;;;;;;;0.93;0.80;;;8.90;99.90;;;;;;2089162;28;20261;-60
2020/12/22 00:25:27;;;;;;;0.60;0.60;;;8.90;99.90;;;;;;2089250;28;20185;-60
2020/12/22 00:26:28;;;;;;;0.80;0.70;;;8.80;99.90;;;;;;2089082;28;20575;-61
2020/12/22 00:27:32;;;;;;;0.70;0.50;;;8.90;99.90;;;;;;2089045;28;20186;-61
2020/12/22 00:28:33;;;;;;;0.70;0.70;;;8.90;99.90;;;;;;2089001;28;20210;-62
2020/12/22 00:29:34;;;;;;;0.73;0.73;;;8.90;99.90;;;;;;2089162;28;20178;-63
2020/12/22 00:30:36;;;;;;;0.93;0.93;;;8.90;99.90;;;;;;2089236;28;20244;-63
2020/12/22 00:31:37;;;;;;;0.70;0.70;;;8.90;99.90;;;;;;2088989;28;20238;-61
2020/12/22 00:32:38;;;;;;;0.53;0.53;;;8.90;99.90;;;;;;2088793;28;20254;-61
2020/12/22 00:33:38;;;;;;;0.90;0.80;;;8.90;99.90;;;;;;2089182;28;20183;-60
2020/12/22 00:34:39;;;;;;;1.07;0.70;;;8.90;99.90;;;;;;2089737;28;20182;-61
2020/12/22 00:35:40;;;;;;;0.67;0.67;;;8.90;99.90;;;;;;2090780;28;20178;-62
2020/12/22 00:36:40;;;;;;;0.50;0.50;;;8.90;99.90;;;;;;2090639;28;20180;-60
2020/12/22 00:37:41;;;;;;;0.60;0.60;;;8.80;99.90;;;;;;2090592;28;20193;-61
2020/12/22 00:38:44;;;;;;;0.70;0.60;;;8.90;99.90;;;;;;2090571;28;20259;-61
2020/12/22 00:39:44;;;;;;;0.98;0.80;;;8.90;99.90;;;;;;2090781;28;20172;-61
2020/12/22 00:40:45;;;;;;;0.70;0.70;;;8.90;99.90;;;;;;2090572;28;20264;-61
2020/12/22 00:41:54;;;;;;;0.60;0.50;;;8.90;99.90;;;;;;2090532;28;20188;-61
2020/12/22 00:42:55;;;;;;;0.80;0.50;;;8.90;99.90;;;;;;2090737;28;20781;-61
2020/12/22 00:43:55;;;;;;;0.68;0.68;;;8.90;99.90;;;;;;2090563;28;20255;-62
2020/12/22 00:44:56;;;;;;;0.60;0.60;;;8.90;99.90;;;;;;2090607;28;20180;-61
2020/12/22 00:45:57;;;;;;;0.70;0.70;;;8.90;99.90;;;;;;2090816;28;20191;-61
2020/12/22 00:46:57;;;;;;;0.60;0.60;;;8.90;99.90;;;;;;2090625;28;20186;-62
2020/12/22 00:47:58;;;;;;;0.60;0.60;;;8.90;99.90;;;;;;2090690;28;20768;-62
2020/12/22 00:48:59;;;;;;;0.60;0.60;;;8.90;99.90;;;;;;2090505;28;20180;-60
2020/12/22 00:49:59;;;;;;;0.60;0.60;;;8.90;99.90;;;;;;2090640;28;20178;-61
2020/12/22 00:51:00;;;;;;;0.50;0.50;;;9.00;99.90;;;;;;2090216;28;20327;-60
2020/12/22 00:52:01;;;;;;;1.40;0.50;;;8.90;99.90;;;;;;2090598;28;20189;-59
2020/12/22 00:53:01;;;;;;;0.50;0.50;;;8.90;99.90;;;;;;2090421;28;20183;-61
2020/12/22 00:54:03;;;;;;;0.40;0.40;;;8.90;99.90;;;;;;2090652;28;20172;-61
2020/12/22 00:55:05;;;;;;;0.63;0.63;;;9.00;99.90;;;;;;2090385;28;20223;-60
2020/12/22 00:56:06;;;;;;;0.70;0.70;;;9.00;99.90;;;;;;2090629;28;20183;-61
2020/12/22 00:57:06;;;;;;;0.53;0.53;;;9.00;99.90;;;;;;2090387;28;20174;-61
2020/12/22 00:58:07;;;;;;;0.60;0.60;;;9.00;99.90;;;;;;2090530;28;20236;-61
2020/12/22 00:59:08;;;;;;;0.40;0.40;;;9.00;99.90;;;;;;2090510;28;20251;-61
2020/12/22 01:00:13;;;;;;;0.55;0.55;;;9.00;99.90;;;;;;2090485;28;20561;-61
2020/12/22 01:01:14;;;;;;;0.40;0.40;;;9.00;99.90;;;;;;2090141;28;20698;-61
2020/12/22 01:02:15;;;;;;;0.63;0.60;;;9.00;99.90;;;;;;2090609;28;20183;-60
2020/12/22 01:03:15;;;;;;;0.40;0.40;;;9.00;99.90;;;;;;2089831;28;20188;-60
2020/12/22 01:04:16;;;;;;;0.60;0.60;;;9.00;99.90;;;;;;2090006;28;20175;-61
2020/12/22 01:05:17;;;;;;;0.50;0.50;;;9.00;99.90;;;;;;2090459;28;20188;-60
2020/12/22 01:06:18;;;;;;;0.43;0.43;;;9.00;99.90;;;;;;2090388;28;20176;-61
2020/12/22 01:07:18;;;;;;;0.50;0.50;;;9.10;99.90;;;;;;2090385;28;20275;-61
2020/12/22 01:08:19;;;;;;;0.57;0.57;;;9.00;99.90;;;;;;2090398;28;20262;-61
2020/12/22 01:09:20;;;;;;;1.03;0.60;;;9.10;99.90;;;;;;2090497;28;20176;-61
2020/12/22 01:10:20;;;;;;;1.37;0.40;;;9.10;99.90;;;;;;2090391;28;20175;-61
2020/12/22 01:11:23;;;;;;;0.90;0.40;;;9.10;99.90;;;;;;2090045;28;20668;-62
2020/12/22 01:12:23;;;;;;;0.50;0.50;;;9.10;99.90;;;;;;2090173;28;20179;-61
2020/12/22 01:13:24;;;;;;;0.50;0.50;;;9.10;99.90;;;;;;2090476;28;20652;-61
2020/12/22 01:14:25;;;;;;;0.70;0.50;;;9.10;99.90;;;;;;2090332;28;20167;-61
2020/12/22 01:15:25;;;;;;;0.43;0.43;;;9.20;99.90;;;;;;2090683;28;20186;-61
2020/12/22 01:16:26;;;;;;;0.40;0.40;;;9.20;99.90;;;;;;2090305;28;20450;-60
2020/12/22 01:17:27;;;;;;;0.47;0.47;;;9.10;99.90;;;;;;2090307;28;20548;-59
2020/12/22 01:18:27;;;;;;;0.40;0.40;;;9.20;99.90;;;;;;2090476;28;20217;-61
2020/12/22 01:19:28;;;;;;;0.50;0.50;;;9.20;99.90;;;;;;2090486;28;20175;-61
2020/12/22 01:20:29;;;;;;;0.40;0.40;;;9.20;99.90;;;;;;2090340;28;20190;-61
2020/12/22 01:21:29;;;;;;;0.63;0.63;;;9.20;99.90;;;;;;2090136;28;20187;-61
2020/12/22 01:22:30;;;;;;;0.43;0.40;;;9.20;99.90;;;;;;2090191;28;20179;-63
2020/12/22 01:23:31;;;;;;;0.57;0.40;;;9.20;99.90;;;;;;2090195;28;20545;-62
2020/12/22 01:24:31;;;;;;;0.40;0.40;;;9.10;99.90;;;;;;2090348;28;20181;-60
2020/12/22 01:25:32;;;;;;;0.73;0.40;;;9.20;99.90;;;;;;2090424;28;20207;-61
2020/12/22 01:26:33;;;;;;;0.40;0.40;;;9.20;99.90;;;;;;2090218;28;20180;-61
2020/12/22 01:27:33;;;;;;;0.47;0.47;;;9.20;99.90;;;;;;2090305;28;20187;-61
2020/12/22 01:28:34;;;;;;;0.40;0.40;;;9.20;99.90;;;;;;2090161;28;20627;-61
2020/12/22 01:29:35;;;;;;;0.47;0.47;;;9.20;99.90;;;;;;2090130;28;20206;-61
2020/12/22 01:30:36;;;;;;;0.40;0.40;;;9.20;99.90;;;;;;2090175;28;20187;-61
2020/12/22 01:31:37;;;;;;;0.50;0.50;;;9.20;99.90;;;;;;2089500;28;20214;-61
2020/12/22 01:32:38;;;;;;;0.30;0.30;;;9.20;99.90;;;;;;2089673;28;20206;-60
2020/12/22 01:33:38;;;;;;;0.40;0.40;;;9.20;99.90;;;;;;2090295;28;20792;-61
2020/12/22 01:34:39;;;;;;;0.40;0.40;;;9.20;99.90;;;;;;2090243;28;20237;-61
2020/12/22 01:35:40;;;;;;;0.50;0.50;;;9.20;99.90;;;;;;2090288;28;20618;-61
2020/12/22 01:36:41;;;;;;;0.40;0.40;;;9.20;99.90;;;;;;2090342;28;20258;-61
2020/12/22 01:37:41;;;;;;;0.30;0.30;;;9.20;99.90;;;;;;2090238;28;20206;-60
2020/12/22 01:38:43;;;;;;;0.20;0.20;;;9.20;99.90;;;;;;2090298;28;20697;-60
2020/12/22 01:39:43;;;;;;;0.40;0.40;;;9.20;99.90;;;;;;2090335;28;20201;-61
2020/12/22 01:40:50;;;;;;;0.40;0.40;;;9.20;99.90;;;;;;2090077;28;20228;-60
2020/12/22 01:41:51;;;;;;;0.50;0.50;;;9.30;99.90;;;;;;2090229;28;20210;-61
2020/12/22 01:42:52;;;;;;;0.30;0.30;;;9.20;99.90;;;;;;2090156;28;20168;-61
2020/12/22 01:44:05;;;;;;;0.33;0.33;;;9.30;99.90;;;;;;2090225;28;20175;-61
2020/12/22 01:45:05;;;;;;;0.30;0.30;;;9.30;99.90;;;;;;2090175;28;20266;-61
2020/12/22 01:46:06;;;;;;;0.40;0.40;;;9.30;99.90;;;;;;2090079;28;20640;-60
2020/12/22 01:47:08;;;;;;;0.40;0.40;;;9.30;99.90;;;;;;2090230;28;20200;-60
2020/12/22 01:48:10;;;;;;;1.15;0.50;;;9.30;99.90;;;;;;2090406;28;20307;-61
2020/12/22 01:49:21;;;;;;;1.25;0.40;;;9.30;99.90;;;;;;2090235;28;20186;-61
2020/12/22 01:50:21;;;;;;;0.40;0.40;;;9.20;99.90;;;;;;2090330;28;20498;-61
2020/12/22 01:51:22;;;;;;;0.30;0.30;;;9.30;99.90;;;;;;2089606;28;20216;-61
2020/12/22 01:52:23;;;;;;;0.27;0.27;;;9.30;99.90;;;;;;2090350;28;20191;-61
2020/12/22 01:53:23;;;;;;;0.30;0.30;;;9.30;99.90;;;;;;2090127;28;20492;-61
2020/12/22 01:54:26;;;;;;;0.30;0.30;;;9.30;99.90;;;;;;2090169;28;20317;-61
2020/12/22 01:55:27;;;;;;;0.40;0.40;;;9.30;99.90;;;;;;2090270;28;20173;-60
2020/12/22 01:56:30;;;;;;;0.63;0.40;;;9.30;99.90;;;;;;2089457;28;20180;-61
2020/12/22 01:57:30;;;;;;;0.30;0.30;;;9.20;99.90;;;;;;2089555;28;20226;-60
2020/12/22 01:58:31;;;;;;;0.27;0.20;;;9.20;99.90;;;;;;2090195;28;20172;-61
2020/12/22 01:59:32;;;;;;;0.47;0.47;;;9.20;99.90;;;;;;2089946;28;20599;-60
2020/12/22 02:00:32;;;;;;;0.40;0.40;;;9.20;99.90;;;;;;2090144;28;20266;-60
2020/12/22 02:01:34;;;;;;;1.03;0.90;;;9.20;99.90;;;;;;2089950;28;20268;-61
2020/12/22 02:02:36;;;;;;;0.40;0.40;;;9.20;99.90;;;;;;2090017;28;20275;-61
2020/12/22 02:03:37;;;;;;;0.93;0.60;;;9.30;99.90;;;;;;2090086;28;20597;-60
2020/12/22 02:04:37;;;;;;;0.30;0.30;;;9.30;99.90;;;;;;2089534;28;20194;-60
2020/12/22 02:05:38;;;;;;;0.40;0.40;;;9.30;99.90;;;;;;2089580;28;20180;-61
2020/12/22 02:06:40;;;;;;;0.30;0.30;;;9.30;99.90;;;;;;2090012;28;20188;-60
2020/12/22 02:07:41;;;;;;;0.32;0.32;;;9.30;99.90;;;;;;2089863;28;20500;-59
2020/12/22 02:08:41;;;;;;;0.30;0.30;;;9.30;99.90;;;;;;2089910;28;20719;-61
2020/12/22 02:09:43;;;;;;;0.97;0.70;;;9.30;99.90;;;;;;2090101;28;20580;-61
2020/12/22 02:10:50;;;;;;;0.80;0.70;;;9.30;99.90;;;;;;2089922;28;20205;-61
2020/12/22 02:11:51;;;;;;;0.30;0.30;;;9.30;99.90;;;;;;2090037;28;20211;-60
2020/12/22 02:12:52;;;;;;;1.63;0.80;;;9.30;99.90;;;;;;2089893;28;20546;-61
2020/12/22 02:13:54;;;;;;;0.90;0.70;;;9.30;99.90;;;;;;2089875;28;20179;-61
2020/12/22 02:14:54;;;;;;;1.25;0.80;;;9.30;99.90;;;;;;2089841;28;20182;-61
2020/12/22 02:15:55;;;;;;;1.00;0.60;;;9.30;99.90;;;;;;2090045;28;20213;-60
2020/12/22 02:16:56;;;;;;;0.40;0.40;;;9.30;99.90;;;;;;2089663;28;20203;-59
2020/12/22 02:17:57;;;;;;;0.28;0.28;;;9.30;99.90;;;;;;2089349;28;20199;-61
2020/12/22 02:18:58;;;;;;;0.67;0.47;;;9.40;99.90;;;;;;2089205;28;20193;-60
2020/12/22 02:19:59;;;;;;;0.80;0.50;;;9.40;99.90;;;;;;2089744;28;20191;-61
2020/12/22 02:21:02;;;;;;;0.50;0.33;;;9.40;99.90;;;;;;2089608;28;20197;-60
2020/12/22 02:22:05;;;;;;;0.30;0.30;;;9.50;99.90;;;;;;2089974;28;20184;-60
2020/12/22 02:23:05;;;;;;;2.95;1.33;;;9.50;99.90;;;;;;2089880;28;20194;-61
2020/12/22 02:24:06;;;;;;;3.80;1.87;;;9.50;99.90;;;;;;2089905;28;20187;-61
2020/12/22 02:25:17;;;;;;;2.25;1.05;;;9.50;99.90;;;;;;2089707;28;20183;-60
2020/12/22 02:26:22;;;;;;;1.45;0.80;;;9.00;99.90;;;;;;2089977;28;20183;-60
2020/12/22 02:27:23;;;;;;;2.40;0.75;;;9.40;99.90;;;;;;2089698;28;20173;-60
2020/12/22 02:28:24;;;;;;;0.87;0.60;;;9.40;99.90;;;;;;2089826;28;20160;-60
2020/12/22 02:29:24;;;;;;;1.30;0.80;;;9.50;99.90;;;;;;2089727;28;20271;-59
2020/12/22 02:30:25;;;;;;;1.23;0.50;;;9.40;99.90;;;;;;2089730;28;20251;-61
2020/12/22 02:31:26;;;;;;;0.30;0.30;;;9.50;99.90;;;;;;2089376;28;20200;-60
2020/12/22 02:32:27;;;;;;;0.30;0.30;;;9.40;99.90;;;;;;2089906;28;20227;-59
2020/12/22 02:33:28;;;;;;;1.30;0.63;;;9.50;99.90;;;;;;2089642;28;20205;-61
2020/12/22 02:34:28;;;;;;;1.10;0.80;;;9.50;99.90;;;;;;2089972;28;20214;-60
2020/12/22 02:35:30;;;;;;;1.73;0.93;;;9.50;99.90;;;;;;2089693;28;20173;-60
2020/12/22 02:36:33;;;;;;;3.08;1.15;;;9.50;99.90;;;;;;2089676;28;20208;-60
2020/12/22 02:37:34;;;;;;;1.58;0.95;;;9.50;99.90;;;;;;2089780;28;20191;-59
2020/12/22 02:38:34;;;;;;;6.70;3.13;;;9.50;99.90;;;;;;2089876;28;20175;-61
2020/12/22 02:39:35;;;;;;;6.80;2.37;;;9.50;99.90;;;;;;2089715;28;20183;-60
2020/12/22 02:40:36;;;;;;;2.00;1.10;;;9.50;99.90;;;;;;2089811;28;20204;-60
2020/12/22 02:41:36;;;;;;;0.67;0.57;;;9.40;99.90;;;;;;2089288;28;20190;-61
2020/12/22 02:42:37;;;;;;;1.33;0.67;;;9.50;99.90;;;;;;2089811;28;20234;-61
2020/12/22 02:43:38;;;;;;;0.40;0.33;;;9.50;99.90;;;;;;2089082;28;20191;-60
2020/12/22 02:44:39;;;;;;;0.32;0.30;;;9.50;99.90;;;;;;2089047;28;20184;-60
2020/12/22 02:45:43;;;;;;;0.20;0.20;;;9.50;99.90;;;;;;2089586;28;20538;-60
2020/12/22 02:46:44;;;;;;;0.30;0.30;;;9.50;99.90;;;;;;2089604;28;20818;-61
2020/12/22 02:47:44;;;;;;;0.20;0.20;;;9.50;99.90;;;;;;2089527;28;20203;-60
2020/12/22 02:48:45;;;;;;;0.87;0.50;;;9.50;99.90;;;;;;2089786;28;20188;-60
2020/12/22 02:49:46;;;;;;;0.20;0.20;;;9.50;99.90;;;;;;2089736;28;20211;-60
2020/12/22 02:50:46;;;;;;;0.30;0.30;;;9.50;99.90;;;;;;2089699;28;20179;-61
2020/12/22 02:51:47;;;;;;;0.20;0.20;;;9.50;99.90;;;;;;2089575;28;20540;-60
2020/12/22 02:52:48;;;;;;;0.30;0.30;;;9.50;99.90;;;;;;2089692;28;20632;-61
2020/12/22 02:53:48;;;;;;;0.30;0.30;;;9.50;99.90;;;;;;2089622;28;20180;-60
2020/12/22 02:54:49;;;;;;;0.20;0.20;;;9.50;99.90;;;;;;2089703;28;20187;-60
2020/12/22 02:55:50;;;;;;;0.30;0.30;;;9.50;99.90;;;;;;2089531;28;20670;-61
2020/12/22 02:56:50;;;;;;;0.27;0.27;;;9.50;99.90;;;;;;2089674;28;20187;-59
2020/12/22 02:57:51;;;;;;;0.23;0.23;;;9.50;99.90;;;;;;2089026;28;20202;-58
2020/12/22 02:58:52;;;;;;;0.50;0.20;;;9.50;99.90;;;;;;2089525;28;20168;-61
2020/12/22 02:59:53;;;;;;;0.10;0.10;;;9.60;99.90;;;;;;2089501;28;20188;-59
2020/12/22 03:00:53;;;;;;;0.30;0.30;;;9.50;99.90;;;;;;2089397;28;20423;-61
2020/12/22 03:01:54;;;;;;;0.10;0.10;;;9.50;99.90;;;;;;2089564;28;20179;-60
2020/12/22 03:02:55;;;;;;;0.20;0.20;;;9.50;99.90;;;;;;2089397;28;20211;-60
2020/12/22 03:03:55;;;;;;;0.20;0.20;;;9.50;99.90;;;;;;2089488;28;20561;-59
2020/12/22 03:04:56;;;;;;;0.20;0.20;;;9.50;99.90;;;;;;2088800;28;20184;-60
2020/12/22 03:05:57;;;;;;;0.30;0.30;;;9.60;99.90;;;;;;2088956;28;20679;-61
2020/12/22 03:06:57;;;;;;;0.30;0.30;;;9.50;99.90;;;;;;2089667;28;20205;-60
2020/12/22 03:07:58;;;;;;;0.20;0.20;;;9.50;99.90;;;;;;2088824;28;20192;-61
2020/12/22 03:08:59;;;;;;;0.30;0.30;;;9.50;99.90;;;;;;2088880;28;20183;-60
2020/12/22 03:09:59;;;;;;;0.20;0.20;;;9.50;99.90;;;;;;2089718;28;20777;-60
2020/12/22 03:11:00;;;;;;;0.20;0.20;;;9.50;99.90;;;;;;2089126;28;20211;-61
2020/12/22 03:12:01;;;;;;;0.30;0.30;;;9.50;99.90;;;;;;2089726;28;20210;-60
2020/12/22 03:13:02;;;;;;;0.37;0.37;;;9.50;99.90;;;;;;2089440;28;20797;-60
2020/12/22 03:14:02;;;;;;;0.40;0.40;;;9.50;99.90;;;;;;2089530;28;20229;-61
2020/12/22 03:15:06;;;;;;;0.30;0.30;;;9.50;99.90;;;;;;2089487;28;20200;-59
2020/12/22 03:16:06;;;;;;;0.40;0.40;;;9.50;99.90;;;;;;2089562;28;20702;-60
2020/12/22 03:17:07;;;;;;;0.40;0.40;;;9.50;99.90;;;;;;2089492;28;20172;-61
2020/12/22 03:18:08;;;;;;;0.30;0.30;;;9.50;99.90;;;;;;2089407;28;20202;-61
2020/12/22 03:19:08;;;;;;;0.87;0.77;;;9.50;99.90;;;;;;2089411;28;20716;-61
2020/12/22 03:20:12;;;;;;;0.30;0.30;;;9.40;99.90;;;;;;2089402;28;20183;-61
2020/12/22 03:21:15;;;;;;;0.30;0.30;;;9.50;99.90;;;;;;2089166;28;20658;-61
2020/12/22 03:22:16;;;;;;;0.20;0.20;;;9.50;99.90;;;;;;2089556;28;20188;-61
2020/12/22 03:23:16;;;;;;;0.50;0.50;;;9.50;99.90;;;;;;2089388;28;20172;-60
2020/12/22 03:24:17;;;;;;;0.53;0.53;;;9.50;99.90;;;;;;2089613;28;20567;-61
2020/12/22 03:25:18;;;;;;;0.30;0.30;;;9.50;99.90;;;;;;2089405;28;20253;-61
2020/12/22 03:26:19;;;;;;;0.20;0.20;;;9.50;99.90;;;;;;2089633;28;20231;-61
2020/12/22 03:27:19;;;;;;;0.30;0.30;;;9.60;99.90;;;;;;2089286;28;20238;-61
2020/12/22 03:28:20;;;;;;;0.30;0.30;;;9.60;99.90;;;;;;2089752;28;20555;-61
2020/12/22 03:29:21;;;;;;;0.30;0.30;;;9.50;99.90;;;;;;2089607;28;20180;-61
2020/12/22 03:30:21;;;;;;;0.20;0.20;;;9.60;99.90;;;;;;2089459;28;20186;-60
2020/12/22 03:31:22;;;;;;;1.03;0.50;;;9.60;99.90;;;;;;2089070;28;20257;-60
2020/12/22 03:32:23;;;;;;;0.50;0.50;;;9.60;99.90;;;;;;2089546;28;20230;-61
2020/12/22 03:33:23;;;;;;;0.27;0.27;;;9.60;99.90;;;;;;2089447;28;20193;-61
2020/12/22 03:34:24;;;;;;;0.30;0.30;;;9.60;99.90;;;;;;2089559;28;20179;-61
2020/12/22 03:35:25;;;;;;;0.20;0.20;;;9.60;99.90;;;;;;2088544;28;20180;-60
2020/12/22 03:36:26;;;;;;;0.60;0.60;;;9.60;99.90;;;;;;2088851;28;20190;-60
2020/12/22 03:37:26;;;;;;;0.50;0.33;;;9.60;99.90;;;;;;2089292;28;20172;-59
2020/12/22 03:38:27;;;;;;;0.97;0.50;;;9.60;99.90;;;;;;2089378;28;20701;-60
2020/12/22 03:39:28;;;;;;;0.43;0.30;;;9.60;99.90;;;;;;2089333;28;20183;-61
2020/12/22 03:40:28;;;;;;;0.73;0.40;;;9.50;99.90;;;;;;2089346;28;20317;-60
2020/12/22 03:41:29;;;;;;;0.40;0.40;;;9.50;99.90;;;;;;2088336;28;20191;-60
2020/12/22 03:42:30;;;;;;;0.37;0.37;;;9.50;99.90;;;;;;2085809;28;20654;-61
2020/12/22 03:43:31;;;;;;;0.50;0.50;;;9.50;99.90;;;;;;2080974;28;20203;-59
2020/12/22 03:44:32;;;;;;;1.52;0.60;;;9.50;99.90;;;;;;2080983;28;20484;-60
2020/12/22 03:45:33;;;;;;;0.80;0.60;;;9.50;99.90;;;;;;2081510;28;20204;-60
2020/12/22 03:46:34;;;;;;;1.70;0.93;;;9.50;99.90;;;;;;2081157;28;20209;-60
2020/12/22 03:47:34;;;;;;;1.50;0.80;;;9.50;99.90;;;;;;2081270;28;20190;-60
2020/12/22 03:48:35;;;;;;;0.30;0.30;;;9.50;99.90;;;;;;2081247;28;20188;-60
2020/12/22 03:49:36;;;;;;;2.90;0.40;;;9.60;99.90;;;;;;2081137;28;20208;-59
2020/12/22 03:50:36;;;;;;;1.30;0.43;;;9.50;99.90;;;;;;2081206;28;20176;-60
2020/12/22 03:51:37;;;;;;;1.80;0.67;;;9.50;99.90;;;;;;2080764;28;20216;-60
2020/12/22 03:52:38;;;;;;;2.23;0.80;;;9.50;99.90;;;;;;2081076;28;20240;-60
2020/12/22 03:53:39;;;;;;;2.30;0.70;;;9.60;99.90;;;;;;2081003;28;20593;-59
2020/12/22 03:54:39;;;;;;;0.30;0.30;;;9.60;99.90;;;;;;2081164;28;20177;-60
2020/12/22 03:55:40;;;;;;;0.40;0.40;;;9.50;99.90;;;;;;2081162;28;20180;-59
2020/12/22 03:56:41;;;;;;;0.30;0.30;;;9.60;99.90;;;;;;2081170;28;20191;-61
2020/12/22 03:57:42;;;;;;;0.60;0.37;;;9.60;99.90;;;;;;2080847;28;20616;-59
2020/12/22 03:58:43;;;;;;;0.43;0.35;;;9.60;99.90;;;;;;2081123;28;20184;-60
2020/12/22 03:59:44;;;;;;;0.30;0.30;;;9.60;99.90;;;;;;2081152;28;20188;-60
2020/12/22 04:00:45;;;;;;;0.73;0.30;;;9.60;99.90;;;;;;2081074;28;20180;-60
2020/12/22 04:01:49;;;;;;;0.20;0.20;;;9.60;99.90;;;;;;2080977;28;20184;-60
2020/12/22 04:02:50;;;;;;;0.22;0.22;;;9.70;99.90;;;;;;2081043;28;20636;-60
2020/12/22 04:03:51;;;;;;;0.40;0.40;;;9.70;99.90;;;;;;2080878;28;20267;-60
2020/12/22 04:04:52;;;;;;;0.80;0.30;;;9.70;99.90;;;;;;2081078;28;20188;-59
2020/12/22 04:05:52;;;;;;;0.40;0.20;;;9.70;99.90;;;;;;2080957;28;20180;-60
2020/12/22 04:06:53;;;;;;;0.40;0.40;;;9.70;99.90;;;;;;2081108;28;20181;-60
2020/12/22 04:07:54;;;;;;;0.33;0.33;;;9.70;99.90;;;;;;2081072;28;20209;-60
2020/12/22 04:08:54;;;;;;;0.30;0.30;;;9.70;99.90;;;;;;2082103;28;20640;-60
2020/12/22 04:09:55;;;;;;;0.37;0.30;;;9.70;99.90;;;;;;2082713;28;20558;-60
2020/12/22 04:10:56;;;;;;;0.23;0.23;;;9.70;99.90;;;;;;2082310;28;20187;-58
2020/12/22 04:11:57;;;;;;;0.23;0.23;;;9.70;99.90;;;;;;2082581;28;20184;-61
2020/12/22 04:12:57;;;;;;;0.67;0.40;;;9.70;99.90;;;;;;2082707;28;20242;-60
2020/12/22 04:13:58;;;;;;;1.50;0.67;;;9.70;99.90;;;;;;2082622;28;20183;-60
2020/12/22 04:15:00;;;;;;;1.50;0.70;;;9.70;99.90;;;;;;2082503;28;20184;-60
2020/12/22 04:16:05;;;;;;;4.13;0.73;;;9.70;99.90;;;;;;2082605;28;20185;-59
2020/12/22 04:17:06;;;;;;;0.73;0.40;;;9.70;99.90;;;;;;2082788;28;20166;-60
2020/12/22 04:18:06;;;;;;;1.70;0.80;;;9.70;99.90;;;;;;2083133;28;20266;-60
2020/12/22 04:19:08;;;;;;;0.47;0.30;;;9.70;99.90;;;;;;2090755;28;20182;-60
2020/12/22 04:20:09;;;;;;;2.30;0.70;;;9.70;99.90;;;;;;2090844;28;20208;-61
2020/12/22 04:21:10;;;;;;;1.38;0.68;;;9.70;99.90;;;;;;2090523;28;20290;-59
2020/12/22 04:22:10;;;;;;;2.20;0.87;;;9.60;99.90;;;;;;2090706;28;20253;-61
2020/12/22 04:23:11;;;;;;;0.40;0.40;;;9.60;99.90;;;;;;2090732;28;20258;-60
2020/12/22 04:24:12;;;;;;;5.10;1.00;;;9.70;99.90;;;;;;2090780;28;20238;-59
2020/12/22 04:25:12;;;;;;;2.93;1.20;;;9.70;99.90;;;;;;2090739;28;20172;-60
2020/12/22 04:26:13;;;;;;;0.40;0.40;;;9.60;99.90;;;;;;2090708;28;20187;-59
2020/12/22 04:27:14;;;;;;;2.63;1.17;;;9.60;99.90;;;;;;2090867;28;20190;-60
2020/12/22 04:28:14;;;;;;;2.63;1.07;;;9.50;99.90;;;;;;2090721;28;20208;-60
2020/12/22 04:29:15;;;;;;;0.73;0.40;;;9.60;99.90;;;;;;2090835;28;20187;-59
2020/12/22 04:30:16;;;;;;;0.23;0.23;;;9.50;99.90;;;;;;2090895;28;20225;-60
2020/12/22 04:31:17;;;;;;;0.60;0.40;;;9.50;99.90;;;;;;2090433;28;20200;-59
2020/12/22 04:32:18;;;;;;;0.45;0.40;;;9.50;99.90;;;;;;2090751;28;20654;-58
2020/12/22 04:33:18;;;;;;;0.30;0.30;;;9.50;99.90;;;;;;2090801;28;20167;-58
2020/12/22 04:34:19;;;;;;;0.40;0.30;;;9.50;99.90;;;;;;2090822;28;20218;-60
2020/12/22 04:35:20;;;;;;;0.20;0.20;;;9.60;99.90;;;;;;2090799;28;20180;-60
2020/12/22 04:36:22;;;;;;;0.30;0.30;;;9.50;99.90;;;;;;2090810;28;20171;-59
2020/12/22 04:37:23;;;;;;;0.50;0.50;;;9.50;99.90;;;;;;2090568;28;20271;-60
2020/12/22 04:38:24;;;;;;;0.40;0.40;;;9.60;99.90;;;;;;2090814;28;20179;-61
2020/12/22 04:39:24;;;;;;;0.40;0.40;;;9.60;99.90;;;;;;2090053;28;20182;-59
2020/12/22 04:40:25;;;;;;;0.90;0.60;;;9.60;99.90;;;;;;2090190;28;20190;-60
2020/12/22 04:41:26;;;;;;;2.07;0.80;;;9.70;99.90;;;;;;2089635;28;20180;-60
2020/12/22 04:42:28;;;;;;;2.60;1.07;;;9.70;99.90;;;;;;2089963;28;20468;-60
2020/12/22 04:43:31;;;;;;;0.32;0.30;;;9.70;99.90;;;;;;2090401;28;20183;-59
2020/12/22 04:44:32;;;;;;;0.70;0.60;;;9.70;99.90;;;;;;2090633;28;20182;-60
2020/12/22 04:45:34;;;;;;;0.30;0.30;;;9.60;99.90;;;;;;2090543;28;20181;-60
2020/12/22 04:46:36;;;;;;;0.28;0.25;;;9.60;99.90;;;;;;2090642;28;20534;-60
2020/12/22 04:47:41;;;;;;;0.40;0.40;;;9.70;99.90;;;;;;2089689;28;20202;-60
2020/12/22 04:48:42;;;;;;;0.30;0.30;;;9.60;99.90;;;;;;2089735;28;20553;-61
2020/12/22 04:49:51;;;;;;;0.38;0.38;;;9.60;99.90;;;;;;2089839;28;20192;-61
2020/12/22 04:50:52;;;;;;;0.40;0.40;;;9.70;99.90;;;;;;2089794;28;20204;-60
2020/12/22 04:51:53;;;;;;;0.35;0.30;;;9.70;99.90;;;;;;2090540;28;20180;-61
2020/12/22 04:52:54;;;;;;;0.30;0.30;;;9.70;99.90;;;;;;2090489;28;20212;-60
2020/12/22 04:53:55;;;;;;;0.47;0.47;;;9.70;99.90;;;;;;2090293;28;20176;-60
2020/12/22 04:54:56;;;;;;;1.13;0.70;;;9.70;99.90;;;;;;2089846;28;20181;-59
2020/12/22 04:55:58;;;;;;;0.60;0.50;;;9.70;99.90;;;;;;2089768;28;20314;-60
2020/12/22 04:57:01;;;;;;;1.48;0.70;;;9.70;99.90;;;;;;2090472;28;20249;-60
2020/12/22 04:58:02;;;;;;;1.15;0.90;;;9.70;99.90;;;;;;2090296;28;20203;-60
2020/12/22 04:59:03;;;;;;;0.97;0.80;;;9.70;99.90;;;;;;2090449;28;20202;-60
2020/12/22 05:00:05;;;;;;;1.10;0.63;;;9.70;99.90;;;;;;2090191;28;20257;-60
2020/12/22 05:01:06;;;;;;;0.30;0.30;;;9.70;99.90;;;;;;2090192;28;20553;-59
2020/12/22 05:02:08;;;;;;;0.20;0.20;;;9.70;99.90;;;;;;2090298;28;20267;-60
2020/12/22 05:03:10;;;;;;;0.40;0.40;;;9.70;99.90;;;;;;2089888;28;20213;-61
2020/12/22 05:04:12;;;;;;;0.40;0.40;;;9.60;99.90;;;;;;2089722;28;20709;-60
2020/12/22 05:05:13;;;;;;;0.30;0.30;;;9.70;99.90;;;;;;2090317;28;20187;-60
2020/12/22 05:06:13;;;;;;;0.40;0.40;;;9.60;99.90;;;;;;2090252;28;20270;-60
2020/12/22 05:07:14;;;;;;;0.30;0.30;;;9.70;99.90;;;;;;2090403;28;20179;-60
2020/12/22 05:08:16;;;;;;;1.13;0.50;;;9.70;99.90;;;;;;2090200;28;20197;-60
2020/12/22 05:09:16;;;;;;;1.92;0.50;;;9.70;99.90;;;;;;2090377;28;20725;-60
2020/12/22 05:10:17;;;;;;;0.40;0.40;;;9.70;99.90;;;;;;2090192;28;20179;-59
2020/12/22 05:11:18;;;;;;;1.10;0.50;;;9.60;99.90;;;;;;2089856;28;20200;-60
2020/12/22 05:12:18;;;;;;;0.40;0.40;;;9.60;99.90;;;;;;2090177;28;20211;-60
2020/12/22 05:13:21;;;;;;;0.50;0.40;;;9.60;99.90;;;;;;2090322;28;20191;-60
2020/12/22 05:14:24;;;;;;;0.55;0.55;;;9.60;99.90;;;;;;2090195;28;20168;-60
2020/12/22 05:15:27;;;;;;;0.55;0.40;;;9.60;99.90;;;;;;2090401;28;20171;-60
2020/12/22 05:16:28;;;;;;;0.57;0.50;;;9.60;99.90;;;;;;2090180;28;20176;-60
2020/12/22 05:17:28;;;;;;;0.70;0.50;;;9.60;99.90;;;;;;2090298;28;20187;-59
2020/12/22 05:18:32;;;;;;;0.40;0.30;;;9.70;99.90;;;;;;2090125;28;20239;-60
2020/12/22 05:19:36;;;;;;;1.85;0.68;;;9.70;99.90;;;;;;2090319;28;20186;-61
2020/12/22 05:20:45;;;;;;;0.50;0.40;;;9.70;99.90;;;;;;2088828;28;20183;-61
2020/12/22 05:21:46;;;;;;;2.15;0.70;;;9.70;99.90;;;;;;2089568;28;20645;-60
2020/12/22 05:22:48;;;;;;;2.55;0.80;;;9.60;99.90;;;;;;2090077;28;20816;-60